Time;durP1;ratioP1;P1;durP2;ratioP2;P2;SDS_P1;SDS_P2;PMS_P1;PMS_P2;Temp;Humidity;BMP_temperature;BMP_pressure;BME280_temperature;BME280_humidity;BME280_pressure;Samples;Min_cycle;Max_cycle;Signal;HPM_P1;HPM_P2
2022/12/29 00:01:01;;;;;;;8.18;7.72;;;;;;;;;;5005786;28;20034;-76
2022/12/29 00:03:27;;;;;;;0.20;0.20;;;;;;;;;;5024826;28;20474;-76
2022/12/29 00:05:57;;;;;;;7.13;2.38;;;;;;;;;;5010280;28;20033;-74
2022/12/29 00:08:38;;;;;;;6.43;2.47;;;;;;;;;;5009559;28;20039;-75
2022/12/29 00:11:15;;;;;;;1.30;1.25;;;;;;;;;;5008796;28;20030;-74
2022/12/29 00:16:24;;;;;;;0.50;0.50;;;;;;;;;;5008518;28;20084;-74
2022/12/29 00:18:50;;;;;;;1.85;1.75;;;;;;;;;;5012906;28;20491;-74
2022/12/29 00:35:23;;;;;;;0.38;0.38;;;;;;;;;;4995182;28;20080;-74
2022/12/29 00:46:01;;;;;;;0.85;0.85;;;;;;;;;;5033469;28;20366;-75
2022/12/29 00:51:13;;;;;;;0.10;0.10;;;;;;;;;;5013594;28;20037;-76
2022/12/29 00:53:38;;;;;;;0.40;0.40;;;;;;;;;;5012395;28;20034;-75
2022/12/29 00:56:04;;;;;;;0.95;0.95;;;;;;;;;;5012370;28;20030;-76
2022/12/29 00:58:30;;;;;;;0.10;0.10;;;;;;;;;;5013183;28;20065;-75
2022/12/29 01:01:02;;;;;;;0.32;0.32;;;;;;;;;;5013210;28;20112;-75
2022/12/29 01:03:28;;;;;;;1.05;1.05;;;;;;;;;;4995595;28;20037;-74
2022/12/29 01:05:53;;;;;;;0.88;0.88;;;;;;;;;;4995989;28;20036;-74
2022/12/29 01:08:19;;;;;;;0.20;0.20;;;;;;;;;;4994998;28;20068;-74
2022/12/29 01:10:44;;;;;;;0.17;0.17;;;;;;;;;;5013452;28;20030;-73
2022/12/29 01:13:10;;;;;;;0.20;0.20;;;;;;;;;;5013382;28;20025;-74
2022/12/29 01:15:36;;;;;;;0.77;0.77;;;;;;;;;;5013734;28;20104;-76
2022/12/29 01:18:01;;;;;;;1.95;1.85;;;;;;;;;;5013354;28;20473;-75
2022/12/29 01:20:28;;;;;;;0.10;0.10;;;;;;;;;;4995684;28;20072;-75
2022/12/29 01:22:54;;;;;;;0.15;0.15;;;;;;;;;;4979186;28;20030;-75
2022/12/29 01:25:19;;;;;;;1.05;0.98;;;;;;;;;;4995434;28;20117;-75
2022/12/29 01:27:45;;;;;;;0.50;0.50;;;;;;;;;;4995821;28;20445;-75
2022/12/29 01:30:11;;;;;;;0.10;0.10;;;;;;;;;;5013395;28;20026;-72
2022/12/29 01:32:37;;;;;;;0.40;0.40;;;;;;;;;;4995576;28;20087;-74
2022/12/29 01:35:02;;;;;;;5.85;3.40;;;;;;;;;;4995732;28;20481;-74
2022/12/29 01:37:28;;;;;;;0.60;0.57;;;;;;;;;;4995508;28;20495;-73
2022/12/29 01:39:53;;;;;;;0.65;0.65;;;;;;;;;;4995389;28;20427;-74
2022/12/29 01:42:22;;;;;;;7.13;6.13;;;;;;;;;;5012594;28;20042;-75
2022/12/29 01:44:51;;;;;;;1.08;1.05;;;;;;;;;;5013281;28;20121;-74
2022/12/29 01:47:37;;;;;;;6.18;4.22;;;;;;;;;;4995590;28;20060;-75
2022/12/29 01:50:06;;;;;;;8.00;4.18;;;;;;;;;;4995472;28;20181;-75
2022/12/29 01:52:34;;;;;;;1.13;1.08;;;;;;;;;;4994746;28;20038;-75
2022/12/29 01:55:01;;;;;;;0.82;0.82;;;;;;;;;;5029688;28;20388;-74
2022/12/29 01:57:30;;;;;;;0.40;0.40;;;;;;;;;;5004874;28;20042;-75
2022/12/29 01:59:59;;;;;;;0.50;0.50;;;;;;;;;;4998619;28;20038;-74
2022/12/29 02:02:25;;;;;;;1.73;1.65;;;;;;;;;;5032517;28;20279;-76
2022/12/29 02:04:51;;;;;;;3.20;2.13;;;;;;;;;;5034584;28;20040;-75
2022/12/29 02:07:18;;;;;;;0.10;0.10;;;;;;;;;;5018647;28;20033;-75
2022/12/29 02:09:46;;;;;;;0.30;0.30;;;;;;;;;;5036157;28;20025;-76
2022/12/29 02:12:12;;;;;;;0.20;0.20;;;;;;;;;;5002009;28;20038;-76
2022/12/29 02:14:37;;;;;;;0.95;0.95;;;;;;;;;;5016386;28;20014;-75
2022/12/29 02:17:21;;;;;;;0.90;0.90;;;;;;;;;;5014523;28;20531;-76
2022/12/29 02:19:47;;;;;;;1.23;1.23;;;;;;;;;;4998429;28;20060;-76
2022/12/29 02:22:12;;;;;;;0.10;0.10;;;;;;;;;;5016382;28;20426;-76
2022/12/29 02:24:43;;;;;;;0.30;0.30;;;;;;;;;;4998693;28;20046;-75
2022/12/29 02:27:24;;;;;;;1.13;0.50;;;;;;;;;;4998243;28;20117;-76
2022/12/29 02:30:02;;;;;;;0.20;0.20;;;;;;;;;;4998451;28;20489;-76
2022/12/29 02:32:33;;;;;;;0.20;0.20;;;;;;;;;;5016052;28;20038;-76
2022/12/29 02:35:05;;;;;;;6.07;5.47;;;;;;;;;;4998462;28;20113;-75
2022/12/29 02:37:39;;;;;;;2.10;1.88;;;;;;;;;;4998260;28;20034;-79
2022/12/29 02:40:07;;;;;;;0.10;0.10;;;;;;;;;;5015993;28;20100;-80
2022/12/29 02:42:32;;;;;;;0.55;0.55;;;;;;;;;;4998059;28;20069;-80
2022/12/29 02:45:17;;;;;;;0.57;0.57;;;;;;;;;;4998553;28;20032;-80
2022/12/29 02:48:02;;;;;;;0.20;0.20;;;;;;;;;;4998295;28;20030;-80
2022/12/29 02:50:32;;;;;;;0.20;0.20;;;;;;;;;;5015784;28;20032;-79
2022/12/29 02:53:15;;;;;;;0.20;0.20;;;;;;;;;;5015262;28;20041;-79
2022/12/29 02:55:47;;;;;;;0.45;0.45;;;;;;;;;;5015513;28;20033;-79
2022/12/29 02:58:16;;;;;;;0.10;0.10;;;;;;;;;;5012631;28;20080;-80
2022/12/29 03:00:48;;;;;;;3.20;1.90;;;;;;;;;;5017637;28;20124;-79
2022/12/29 03:03:23;;;;;;;0.10;0.10;;;;;;;;;;5035294;28;20033;-76
2022/12/29 03:05:52;;;;;;;0.38;0.38;;;;;;;;;;5017566;28;20515;-75
2022/12/29 03:08:38;;;;;;;0.20;0.20;;;;;;;;;;5017524;28;20017;-73
2022/12/29 03:12:07;;;;;;;0.10;0.10;;;;;;;;;;5035099;28;20562;-74
2022/12/29 03:16:45;;;;;;;0.20;0.20;;;;;;;;;;5034328;28;20350;-74
2022/12/29 03:19:15;;;;;;;0.40;0.40;;;;;;;;;;5035341;28;20441;-73
2022/12/29 03:24:39;;;;;;;0.50;0.50;;;;;;;;;;5017153;28;20099;-74
2022/12/29 03:27:06;;;;;;;0.30;0.30;;;;;;;;;;5034862;28;20083;-74
2022/12/29 03:29:39;;;;;;;0.15;0.15;;;;;;;;;;5035179;28;20075;-74
2022/12/29 03:32:06;;;;;;;0.57;0.57;;;;;;;;;;5016955;28;20021;-73
2022/12/29 03:34:33;;;;;;;0.10;0.10;;;;;;;;;;5016916;28;20037;-79
2022/12/29 03:37:00;;;;;;;3.33;3.17;;;;;;;;;;5016724;28;20029;-73
2022/12/29 03:39:28;;;;;;;0.20;0.20;;;;;;;;;;5017396;28;20370;-73
2022/12/29 03:41:57;;;;;;;0.10;0.10;;;;;;;;;;5016938;28;20087;-75
2022/12/29 03:44:36;;;;;;;0.95;0.95;;;;;;;;;;5034407;28;20076;-74
2022/12/29 03:47:02;;;;;;;0.43;0.40;;;;;;;;;;5016650;28;20029;-76
2022/12/29 03:49:28;;;;;;;0.20;0.20;;;;;;;;;;5034156;28;20033;-75
2022/12/29 03:51:53;;;;;;;26.75;24.75;;;;;;;;;;5034662;28;20468;-75
2022/12/29 03:54:19;;;;;;;1.50;1.40;;;;;;;;;;5000386;28;20052;-74
2022/12/29 03:56:45;;;;;;;0.20;0.20;;;;;;;;;;5016341;28;20057;-76
2022/12/29 03:59:13;;;;;;;0.40;0.40;;;;;;;;;;5016025;28;20029;-76
2022/12/29 04:01:39;;;;;;;0.10;0.10;;;;;;;;;;5000376;28;20429;-76
2022/12/29 04:04:06;;;;;;;0.17;0.17;;;;;;;;;;5011349;28;20035;-75
2022/12/29 04:06:32;;;;;;;0.20;0.20;;;;;;;;;;5012852;28;20147;-78
2022/12/29 04:09:04;;;;;;;0.47;0.47;;;;;;;;;;5012518;28;20022;-78
2022/12/29 04:11:34;;;;;;;;;;;;;;;;;;5012814;28;20037;-78
2022/12/29 04:14:00;;;;;;;0.98;0.93;;;;;;;;;;5012400;28;19908;-78
2022/12/29 04:16:27;;;;;;;2.47;2.28;;;;;;;;;;5012750;28;20083;-78
2022/12/29 04:18:52;;;;;;;0.70;0.70;;;;;;;;;;5029667;28;20480;-78
2022/12/29 04:21:18;;;;;;;3.35;3.13;;;;;;;;;;5011938;28;20065;-77
2022/12/29 04:23:43;;;;;;;0.10;0.10;;;;;;;;;;5012091;28;20037;-74
2022/12/29 04:26:10;;;;;;;0.20;0.20;;;;;;;;;;5012487;28;20079;-74
2022/12/29 04:28:47;;;;;;;1.15;1.15;;;;;;;;;;5011902;28;20059;-74
2022/12/29 04:31:30;;;;;;;0.50;0.50;;;;;;;;;;5011874;28;20481;-73
2022/12/29 04:33:57;;;;;;;0.20;0.20;;;;;;;;;;5012374;28;20025;-74
2022/12/29 04:36:23;;;;;;;0.88;0.80;;;;;;;;;;5012622;28;20211;-73
2022/12/29 04:38:48;;;;;;;0.13;0.13;;;;;;;;;;5029430;28;20048;-73
2022/12/29 04:41:14;;;;;;;0.20;0.20;;;;;;;;;;5012159;28;20523;-74
2022/12/29 04:43:40;;;;;;;0.25;0.25;;;;;;;;;;5011456;28;20234;-74
2022/12/29 04:46:24;;;;;;;0.10;0.10;;;;;;;;;;5029841;28;20037;-74
2022/12/29 04:48:55;;;;;;;2.55;2.45;;;;;;;;;;5011625;28;20021;-74
2022/12/29 04:51:49;;;;;;;0.20;0.20;;;;;;;;;;5016189;28;20057;-74
2022/12/29 04:54:16;;;;;;;1.88;0.93;;;;;;;;;;5011900;28;20473;-76
2022/12/29 04:56:46;;;;;;;0.32;0.32;;;;;;;;;;5011984;28;20064;-75
2022/12/29 04:59:14;;;;;;;1.75;1.13;;;;;;;;;;4995966;28;20030;-74
2022/12/29 05:01:43;;;;;;;4.20;1.93;;;;;;;;;;5011402;28;20187;-73
2022/12/29 05:04:09;;;;;;;0.20;0.20;;;;;;;;;;5029689;28;20723;-74
2022/12/29 05:06:34;;;;;;;0.35;0.35;;;;;;;;;;5011619;28;20033;-75
2022/12/29 05:08:59;;;;;;;0.20;0.20;;;;;;;;;;5011295;28;20025;-74
2022/12/29 05:11:25;;;;;;;0.50;0.50;;;;;;;;;;5011770;28;20056;-74
2022/12/29 05:13:52;;;;;;;0.40;0.40;;;;;;;;;;5011729;28;20123;-74
2022/12/29 05:16:18;;;;;;;0.20;0.20;;;;;;;;;;5011685;28;20065;-74
2022/12/29 05:18:43;;;;;;;2.40;2.30;;;;;;;;;;5011744;28;20026;-74
2022/12/29 05:21:09;;;;;;;0.25;0.25;;;;;;;;;;5011665;28;20486;-74
2022/12/29 05:23:36;;;;;;;0.10;0.10;;;;;;;;;;5011083;28;20811;-76
2022/12/29 05:26:05;;;;;;;0.43;0.43;;;;;;;;;;5011389;28;20144;-75
2022/12/29 05:28:50;;;;;;;0.17;0.17;;;;;;;;;;5015520;28;20042;-75
2022/12/29 05:31:18;;;;;;;0.10;0.10;;;;;;;;;;5011408;28;20030;-76
2022/12/29 05:33:43;;;;;;;0.10;0.10;;;;;;;;;;5011075;28;20029;-76
2022/12/29 05:36:09;;;;;;;0.10;0.10;;;;;;;;;;5011342;28;20035;-76
2022/12/29 05:38:38;;;;;;;0.20;0.20;;;;;;;;;;5011787;28;20021;-76
2022/12/29 05:41:03;;;;;;;0.15;0.15;;;;;;;;;;5015485;28;20750;-76
2022/12/29 05:43:55;;;;;;;0.10;0.10;;;;;;;;;;5028604;28;20071;-76
2022/12/29 05:46:38;;;;;;;0.63;0.60;;;;;;;;;;5015591;28;20447;-76
2022/12/29 05:49:15;;;;;;;0.20;0.20;;;;;;;;;;5034998;28;20075;-75
2022/12/29 05:51:54;;;;;;;0.63;0.63;;;;;;;;;;5052924;28;20115;-75
2022/12/29 05:54:20;;;;;;;0.20;0.20;;;;;;;;;;5034680;28;20171;-75
2022/12/29 05:56:46;;;;;;;0.40;0.40;;;;;;;;;;5034537;28;20131;-75
2022/12/29 05:59:11;;;;;;;0.20;0.20;;;;;;;;;;5034433;28;20384;-74
2022/12/29 06:01:37;;;;;;;0.10;0.10;;;;;;;;;;5021420;28;20036;-76
2022/12/29 06:04:02;;;;;;;0.50;0.50;;;;;;;;;;5040009;28;20041;-76
2022/12/29 06:06:28;;;;;;;0.10;0.10;;;;;;;;;;5033239;28;20029;-77
2022/12/29 06:08:54;;;;;;;0.10;0.10;;;;;;;;;;5034264;28;20116;-76
2022/12/29 06:11:20;;;;;;;0.40;0.40;;;;;;;;;;5023024;28;20783;-76
2022/12/29 06:13:52;;;;;;;0.15;0.15;;;;;;;;;;5015070;28;20025;-78
2022/12/29 06:16:18;;;;;;;0.30;0.30;;;;;;;;;;5014385;28;20128;-78
2022/12/29 06:18:44;;;;;;;0.20;0.20;;;;;;;;;;5014394;28;20025;-78
2022/12/29 06:21:10;;;;;;;0.68;0.68;;;;;;;;;;4997107;28;20030;-75
2022/12/29 06:23:36;;;;;;;0.10;0.10;;;;;;;;;;5013523;28;20075;-75
2022/12/29 06:26:02;;;;;;;0.10;0.10;;;;;;;;;;5014244;28;20091;-75
2022/12/29 06:28:28;;;;;;;4.60;4.28;;;;;;;;;;5013637;28;20598;-74
2022/12/29 06:30:53;;;;;;;0.10;0.10;;;;;;;;;;4997893;28;20476;-74
2022/12/29 06:33:19;;;;;;;0.20;0.20;;;;;;;;;;5014131;28;20037;-75
2022/12/29 06:35:45;;;;;;;0.20;0.20;;;;;;;;;;5031543;28;20571;-75
2022/12/29 06:38:12;;;;;;;0.52;0.52;;;;;;;;;;5014245;28;20072;-75
2022/12/29 06:40:37;;;;;;;5.72;5.28;;;;;;;;;;5028810;28;20049;-74
2022/12/29 06:43:02;;;;;;;1.55;1.45;;;;;;;;;;5022276;28;20125;-76
2022/12/29 06:45:46;;;;;;;0.10;0.10;;;;;;;;;;5043000;28;20067;-76
2022/12/29 06:48:12;;;;;;;0.10;0.10;;;;;;;;;;5028503;28;20449;-76
2022/12/29 06:50:38;;;;;;;0.20;0.20;;;;;;;;;;5028565;28;20026;-75
2022/12/29 06:53:03;;;;;;;0.43;0.43;;;;;;;;;;5031427;28;20021;-74
2022/12/29 06:55:29;;;;;;;1.20;1.20;;;;;;;;;;5029891;28;20025;-74
2022/12/29 06:57:58;;;;;;;0.20;0.20;;;;;;;;;;5012542;28;20042;-74
2022/12/29 07:00:24;;;;;;;0.10;0.10;;;;;;;;;;5031279;28;20044;-74
2022/12/29 07:02:49;;;;;;;0.30;0.30;;;;;;;;;;5013394;28;20034;-73
2022/12/29 07:05:15;;;;;;;2.75;2.55;;;;;;;;;;5013934;28;20091;-74
2022/12/29 07:07:40;;;;;;;0.80;0.80;;;;;;;;;;5030520;28;20033;-75
2022/12/29 07:10:06;;;;;;;0.20;0.20;;;;;;;;;;5031086;28;20128;-76
2022/12/29 07:12:31;;;;;;;0.30;0.30;;;;;;;;;;5032352;28;20105;-76
2022/12/29 07:14:57;;;;;;;0.13;0.13;;;;;;;;;;5031445;28;20028;-75
2022/12/29 07:17:22;;;;;;;0.20;0.20;;;;;;;;;;5030885;28;20033;-75
2022/12/29 07:19:47;;;;;;;0.13;0.13;;;;;;;;;;5031106;28;20025;-76
2022/12/29 07:22:13;;;;;;;0.10;0.10;;;;;;;;;;5031031;28;20465;-76
2022/12/29 07:24:38;;;;;;;0.20;0.20;;;;;;;;;;5031174;28;20053;-75
2022/12/29 07:27:04;;;;;;;4.30;3.90;;;;;;;;;;5031272;28;20116;-75
2022/12/29 07:29:29;;;;;;;0.25;0.25;;;;;;;;;;5030930;28;20030;-75
2022/12/29 07:31:55;;;;;;;0.20;0.20;;;;;;;;;;5030892;28;20033;-75
2022/12/29 07:34:20;;;;;;;0.10;0.10;;;;;;;;;;5012982;28;20029;-75
2022/12/29 07:36:46;;;;;;;0.20;0.20;;;;;;;;;;5029324;28;20033;-76
2022/12/29 07:39:11;;;;;;;0.20;0.20;;;;;;;;;;5030611;28;20040;-75
2022/12/29 07:41:37;;;;;;;11.38;7.95;;;;;;;;;;5030494;28;20393;-76
2022/12/29 07:44:02;;;;;;;0.20;0.20;;;;;;;;;;5030388;28;20389;-76
2022/12/29 07:46:30;;;;;;;0.22;0.22;;;;;;;;;;5030398;28;20128;-76
2022/12/29 07:48:56;;;;;;;1.05;1.05;;;;;;;;;;5030581;28;20104;-76
2022/12/29 07:51:21;;;;;;;2.60;2.40;;;;;;;;;;5030371;28;20442;-75
2022/12/29 07:53:47;;;;;;;0.10;0.10;;;;;;;;;;5030397;28;20041;-76
2022/12/29 07:56:12;;;;;;;0.52;0.50;;;;;;;;;;5030221;28;20357;-75
2022/12/29 07:58:38;;;;;;;0.52;0.52;;;;;;;;;;5014351;28;20051;-75
2022/12/29 08:01:03;;;;;;;0.10;0.10;;;;;;;;;;4999965;28;20025;-76
2022/12/29 08:03:29;;;;;;;0.85;0.85;;;;;;;;;;5029655;28;20045;-76
2022/12/29 08:05:56;;;;;;;0.20;0.20;;;;;;;;;;5029795;28;20036;-76
2022/12/29 08:08:21;;;;;;;0.32;0.32;;;;;;;;;;5030143;28;20040;-76
2022/12/29 08:10:47;;;;;;;0.17;0.17;;;;;;;;;;5026806;28;20108;-77
2022/12/29 08:13:12;;;;;;;0.10;0.10;;;;;;;;;;5019904;28;20539;-76
2022/12/29 08:15:38;;;;;;;0.10;0.10;;;;;;;;;;5010424;28;20056;-75
2022/12/29 08:18:03;;;;;;;0.10;0.10;;;;;;;;;;5025897;28;20386;-76
2022/12/29 08:20:29;;;;;;;1.88;1.73;;;;;;;;;;5039885;28;20091;-75
2022/12/29 08:22:55;;;;;;;0.10;0.10;;;;;;;;;;5034858;28;20384;-74
2022/12/29 08:25:20;;;;;;;0.10;0.10;;;;;;;;;;5023011;28;20037;-76
2022/12/29 08:27:46;;;;;;;1.00;1.00;;;;;;;;;;5010130;28;20034;-75
2022/12/29 08:30:12;;;;;;;0.30;0.30;;;;;;;;;;5025775;28;20031;-76
2022/12/29 08:32:37;;;;;;;0.47;0.47;;;;;;;;;;5023658;28;20029;-78
2022/12/29 08:35:03;;;;;;;0.10;0.10;;;;;;;;;;5041548;28;20035;-76
2022/12/29 08:37:28;;;;;;;0.10;0.10;;;;;;;;;;5049386;28;20025;-78
2022/12/29 08:39:53;;;;;;;0.20;0.20;;;;;;;;;;5045862;28;20519;-76
2022/12/29 08:42:19;;;;;;;0.30;0.30;;;;;;;;;;5034808;28;20013;-76
2022/12/29 08:44:44;;;;;;;0.45;0.45;;;;;;;;;;5010367;28;20037;-76
2022/12/29 08:47:10;;;;;;;0.15;0.15;;;;;;;;;;5038114;28;20400;-77
2022/12/29 08:49:36;;;;;;;0.65;0.65;;;;;;;;;;5029538;28;20056;-76
2022/12/29 08:52:01;;;;;;;1.27;1.17;;;;;;;;;;5028417;28;20038;-74
2022/12/29 08:54:26;;;;;;;0.10;0.10;;;;;;;;;;5011680;28;20511;-75
2022/12/29 08:56:53;;;;;;;0.22;0.22;;;;;;;;;;5011264;28;20053;-75
2022/12/29 08:59:21;;;;;;;0.38;0.38;;;;;;;;;;5009505;28;20100;-75
2022/12/29 09:01:47;;;;;;;0.20;0.20;;;;;;;;;;5011653;28;20037;-74
2022/12/29 09:04:13;;;;;;;0.10;0.10;;;;;;;;;;5029437;28;20473;-75
2022/12/29 09:06:38;;;;;;;0.10;0.10;;;;;;;;;;5004816;28;20064;-74
2022/12/29 09:09:03;;;;;;;0.13;0.13;;;;;;;;;;5026562;28;20056;-75
2022/12/29 09:11:29;;;;;;;0.10;0.10;;;;;;;;;;5027163;28;20415;-76
2022/12/29 09:13:54;;;;;;;0.10;0.10;;;;;;;;;;5027289;28;20021;-73
2022/12/29 09:16:21;;;;;;;0.20;0.20;;;;;;;;;;5014503;28;20029;-74
2022/12/29 09:18:46;;;;;;;0.30;0.30;;;;;;;;;;5028183;28;20032;-75
2022/12/29 09:21:12;;;;;;;0.30;0.30;;;;;;;;;;5031612;28;20033;-76
2022/12/29 09:23:38;;;;;;;0.20;0.20;;;;;;;;;;5007658;28;20041;-75
2022/12/29 09:26:03;;;;;;;0.30;0.30;;;;;;;;;;5044397;28;20021;-73
2022/12/29 09:28:29;;;;;;;0.20;0.20;;;;;;;;;;5016362;28;20033;-73
2022/12/29 09:30:55;;;;;;;0.25;0.25;;;;;;;;;;4996378;28;20113;-73
2022/12/29 09:33:20;;;;;;;0.20;0.20;;;;;;;;;;4997438;28;20034;-73
2022/12/29 09:35:50;;;;;;;0.20;0.20;;;;;;;;;;5017004;28;20151;-76
2022/12/29 09:38:16;;;;;;;0.20;0.20;;;;;;;;;;5030575;28;20025;-73
2022/12/29 09:40:44;;;;;;;0.20;0.20;;;;;;;;;;5029012;28;20091;-73
2022/12/29 09:43:37;;;;;;;0.10;0.10;;;;;;;;;;5033980;28;20136;-75
2022/12/29 09:46:09;;;;;;;0.20;0.20;;;;;;;;;;5019629;28;20494;-73
2022/12/29 09:48:37;;;;;;;0.20;0.20;;;;;;;;;;5028480;28;20033;-73
2022/12/29 09:51:05;;;;;;;0.10;0.10;;;;;;;;;;5030763;28;20057;-74
2022/12/29 09:53:44;;;;;;;0.20;0.20;;;;;;;;;;5014347;28;20099;-73
2022/12/29 09:56:23;;;;;;;0.40;0.40;;;;;;;;;;5014464;28;20763;-73
2022/12/29 09:58:52;;;;;;;0.20;0.20;;;;;;;;;;5031357;28;20045;-73
2022/12/29 10:01:28;;;;;;;0.20;0.20;;;;;;;;;;5007645;28;20029;-74
2022/12/29 10:03:58;;;;;;;1.27;1.05;;;;;;;;;;5021642;28;20332;-73
2022/12/29 10:06:23;;;;;;;;;;;;;;;;;;4997909;28;20036;-73
2022/12/29 10:08:49;;;;;;;0.45;0.40;;;;;;;;;;5032177;28;19912;-73
2022/12/29 10:11:33;;;;;;;0.30;0.30;;;;;;;;;;5028969;28;20494;-77
2022/12/29 10:13:58;;;;;;;0.40;0.40;;;;;;;;;;4998691;28;20077;-74
2022/12/29 10:16:29;;;;;;;0.52;0.52;;;;;;;;;;5007037;28;20025;-74
2022/12/29 10:19:00;;;;;;;0.20;0.20;;;;;;;;;;5032386;28;20112;-73
2022/12/29 10:21:45;;;;;;;0.20;0.20;;;;;;;;;;5033701;28;20032;-74
2022/12/29 10:24:11;;;;;;;0.88;0.88;;;;;;;;;;5008063;28;20504;-73
2022/12/29 10:26:41;;;;;;;0.30;0.30;;;;;;;;;;5005135;28;20112;-74
2022/12/29 10:29:16;;;;;;;3.42;1.10;;;;;;;;;;5002514;28;20688;-74
2022/12/29 10:31:49;;;;;;;0.40;0.40;;;;;;;;;;4995570;28;20033;-75
2022/12/29 10:34:23;;;;;;;0.52;0.52;;;;;;;;;;5012068;28;20030;-73
2022/12/29 10:36:51;;;;;;;0.50;0.50;;;;;;;;;;5029917;23;20182;-73
2022/12/29 10:39:21;;;;;;;0.20;0.20;;;;;;;;;;5046884;28;20040;-75
2022/12/29 10:42:10;;;;;;;0.40;0.40;;;;;;;;;;5025695;28;20028;-75
2022/12/29 10:44:36;;;;;;;0.20;0.20;;;;;;;;;;5022818;28;20048;-74
2022/12/29 10:47:07;;;;;;;0.82;0.82;;;;;;;;;;5030836;28;20025;-75
2022/12/29 10:49:36;;;;;;;0.20;0.20;;;;;;;;;;4996343;28;20029;-74
2022/12/29 10:52:03;;;;;;;0.20;0.20;;;;;;;;;;5030008;28;20475;-73
2022/12/29 10:54:47;;;;;;;0.10;0.10;;;;;;;;;;5033352;28;20119;-74
2022/12/29 10:57:33;;;;;;;0.20;0.20;;;;;;;;;;5019411;28;20512;-73
2022/12/29 10:59:59;;;;;;;0.20;0.20;;;;;;;;;;5028508;28;20072;-74
2022/12/29 11:02:30;;;;;;;0.10;0.10;;;;;;;;;;4994857;28;20575;-77
2022/12/29 11:05:02;;;;;;;0.47;0.47;;;;;;;;;;5005609;28;20531;-73
2022/12/29 11:07:29;;;;;;;0.40;0.40;;;;;;;;;;5011496;28;20366;-74
2022/12/29 11:09:55;;;;;;;0.40;0.40;;;;;;;;;;5021323;28;20017;-73
2022/12/29 11:12:23;;;;;;;0.20;0.20;;;;;;;;;;5031009;28;20025;-73
2022/12/29 11:15:10;;;;;;;0.20;0.20;;;;;;;;;;5030734;28;20022;-76
2022/12/29 11:17:43;;;;;;;0.20;0.20;;;;;;;;;;4997263;28;20062;-75
2022/12/29 11:20:28;;;;;;;0.20;0.20;;;;;;;;;;5029644;28;20022;-73
2022/12/29 11:22:53;;;;;;;2.10;1.30;;;;;;;;;;5012674;28;20548;-73
2022/12/29 11:25:19;;;;;;;0.52;0.52;;;;;;;;;;4999039;28;20104;-74
2022/12/29 11:28:01;;;;;;;0.20;0.20;;;;;;;;;;4991096;28;20439;-74
2022/12/29 11:30:28;;;;;;;0.15;0.15;;;;;;;;;;5018007;28;20033;-74
2022/12/29 11:32:54;;;;;;;3.30;2.50;;;;;;;;;;4991079;28;20482;-74
2022/12/29 11:35:29;;;;;;;0.20;0.20;;;;;;;;;;5007754;28;20029;-73
2022/12/29 11:37:57;;;;;;;0.20;0.20;;;;;;;;;;5008900;28;20494;-73
2022/12/29 11:40:23;;;;;;;0.30;0.30;;;;;;;;;;4993471;28;20389;-73
2022/12/29 11:42:51;;;;;;;0.30;0.30;;;;;;;;;;5010506;28;20080;-75
2022/12/29 11:45:18;;;;;;;0.20;0.20;;;;;;;;;;4992469;28;20024;-73
2022/12/29 11:47:45;;;;;;;0.40;0.40;;;;;;;;;;5026075;28;20679;-75
2022/12/29 11:50:16;;;;;;;0.17;0.17;;;;;;;;;;5029987;28;20456;-74
2022/12/29 11:52:42;;;;;;;0.47;0.47;;;;;;;;;;5011526;28;20124;-73
2022/12/29 11:55:17;;;;;;;0.30;0.30;;;;;;;;;;5030020;28;20428;-74
2022/12/29 11:57:43;;;;;;;0.20;0.20;;;;;;;;;;5029970;28;20029;-72
2022/12/29 12:00:19;;;;;;;0.90;0.90;;;;;;;;;;5030503;28;20017;-73
2022/12/29 12:02:57;;;;;;;0.20;0.20;;;;;;;;;;5012138;28;20029;-74
2022/12/29 12:05:36;;;;;;;0.82;0.82;;;;;;;;;;5029950;28;20376;-73
2022/12/29 12:08:15;;;;;;;0.22;0.22;;;;;;;;;;5012211;28;20033;-73
2022/12/29 12:10:44;;;;;;;;;;;;;;;;;;5012769;28;20037;-74
2022/12/29 12:13:22;;;;;;;0.20;0.20;;;;;;;;;;5028241;28;19912;-74
2022/12/29 12:15:55;;;;;;;0.60;0.60;;;;;;;;;;4997988;28;20083;-73
2022/12/29 12:18:26;;;;;;;0.20;0.20;;;;;;;;;;5028219;28;20033;-74
2022/12/29 12:20:58;;;;;;;0.20;0.20;;;;;;;;;;5029676;28;20017;-76
2022/12/29 12:23:27;;;;;;;0.20;0.20;;;;;;;;;;5028265;28;20535;-74
2022/12/29 12:26:04;;;;;;;0.20;0.20;;;;;;;;;;5029474;28;20115;-77
2022/12/29 12:28:48;;;;;;;0.30;0.30;;;;;;;;;;5028556;28;20112;-73
2022/12/29 12:31:25;;;;;;;0.30;0.30;;;;;;;;;;5025235;28;20026;-73
2022/12/29 12:33:53;;;;;;;2.50;1.25;;;;;;;;;;5028752;28;20109;-74
2022/12/29 12:36:29;;;;;;;0.20;0.20;;;;;;;;;;5005215;28;20048;-74
2022/12/29 12:38:55;;;;;;;0.32;0.32;;;;;;;;;;5023497;28;20058;-71
2022/12/29 12:41:30;;;;;;;0.20;0.20;;;;;;;;;;5009177;28;20034;-74
2022/12/29 12:44:10;;;;;;;0.20;0.20;;;;;;;;;;5011145;28;20080;-73
2022/12/29 12:46:36;;;;;;;0.20;0.20;;;;;;;;;;5011088;28;20041;-73
2022/12/29 12:49:20;;;;;;;0.20;0.20;;;;;;;;;;5044148;28;20152;-75
2022/12/29 12:52:02;;;;;;;0.50;0.50;;;;;;;;;;5011254;28;20025;-71
2022/12/29 12:54:31;;;;;;;0.20;0.20;;;;;;;;;;5011384;28;20026;-73
2022/12/29 12:56:56;;;;;;;1.67;0.75;;;;;;;;;;5028448;28;20486;-73
2022/12/29 12:59:28;;;;;;;0.20;0.20;;;;;;;;;;5011465;28;20017;-73
2022/12/29 13:01:53;;;;;;;0.65;0.65;;;;;;;;;;5011166;28;20044;-74
2022/12/29 13:04:34;;;;;;;0.28;0.28;;;;;;;;;;5011277;28;20037;-73
2022/12/29 13:07:18;;;;;;;0.50;0.50;;;;;;;;;;5011281;28;20029;-73
2022/12/29 13:09:59;;;;;;;0.75;0.73;;;;;;;;;;5027247;28;20022;-73
2022/12/29 13:12:31;;;;;;;0.70;0.30;;;;;;;;;;5026508;28;20029;-73
2022/12/29 13:15:08;;;;;;;1.40;0.68;;;;;;;;;;5016173;28;20083;-74
2022/12/29 13:17:52;;;;;;;0.90;0.80;;;;;;;;;;5016055;28;20029;-73
2022/12/29 13:20:24;;;;;;;0.20;0.20;;;;;;;;;;5017819;28;20034;-75
2022/12/29 13:22:50;;;;;;;0.55;0.52;;;;;;;;;;5009932;28;20407;-74
2022/12/29 13:25:41;;;;;;;0.25;0.20;;;;;;;;;;5027248;28;20029;-75
2022/12/29 13:28:13;;;;;;;1.10;0.55;;;;;;;;;;5006310;28;20037;-73
2022/12/29 13:30:48;;;;;;;0.30;0.28;;;;;;;;;;5010890;28;20018;-73
2022/12/29 13:33:23;;;;;;;0.22;0.22;;;;;;;;;;5011207;28;20075;-73
2022/12/29 13:35:48;;;;;;;0.40;0.40;;;;;;;;;;5011083;28;20079;-72
2022/12/29 13:38:35;;;;;;;0.52;0.47;;;;;;;;;;5006855;28;20436;-73
2022/12/29 13:41:03;;;;;;;1.98;1.02;;;;;;;;;;5001438;28;20021;-73
2022/12/29 13:43:31;;;;;;;0.40;0.40;;;;;;;;;;4977284;28;20485;-72
2022/12/29 13:46:02;;;;;;;0.52;0.43;;;;;;;;;;5009669;28;20029;-74
2022/12/29 13:48:51;;;;;;;0.38;0.38;;;;;;;;;;4991436;28;20032;-74
2022/12/29 13:51:17;;;;;;;0.15;0.15;;;;;;;;;;5009968;28;20105;-72
2022/12/29 13:53:56;;;;;;;0.28;0.28;;;;;;;;;;5027622;28;20029;-73
2022/12/29 13:56:42;;;;;;;0.20;0.20;;;;;;;;;;5001341;28;20025;-72
2022/12/29 13:59:20;;;;;;;0.20;0.20;;;;;;;;;;5010793;28;20591;-73
2022/12/29 14:01:45;;;;;;;0.20;0.20;;;;;;;;;;5030433;28;20017;-73
2022/12/29 14:04:20;;;;;;;0.38;0.38;;;;;;;;;;5021295;28;20048;-73
2022/12/29 14:06:47;;;;;;;0.10;0.10;;;;;;;;;;5013431;28;20034;-73
2022/12/29 14:09:39;;;;;;;3.45;3.30;;;;;;;;;;5029920;28;20018;-72
2022/12/29 14:12:23;;;;;;;0.47;0.47;;;;;;;;;;5023781;28;20653;-73
2022/12/29 14:14:49;;;;;;;0.40;0.40;;;;;;;;;;5011785;28;20025;-73
2022/12/29 14:17:17;;;;;;;0.20;0.20;;;;;;;;;;4996687;28;20025;-73
2022/12/29 14:19:44;;;;;;;0.57;0.57;;;;;;;;;;5010396;28;20022;-73
2022/12/29 14:22:10;;;;;;;0.30;0.30;;;;;;;;;;5024921;28;20026;-76
2022/12/29 14:24:46;;;;;;;0.20;0.20;;;;;;;;;;5011894;28;20136;-72
2022/12/29 14:27:11;;;;;;;0.20;0.20;;;;;;;;;;5029129;28;20511;-75
2022/12/29 14:29:40;;;;;;;0.30;0.30;;;;;;;;;;5028297;28;20029;-74
2022/12/29 14:32:21;;;;;;;6.32;1.38;;;;;;;;;;4997059;28;20027;-74
2022/12/29 14:34:47;;;;;;;0.20;0.20;;;;;;;;;;5027562;28;20036;-73
2022/12/29 14:37:27;;;;;;;0.40;0.40;;;;;;;;;;5015763;28;20124;-72
2022/12/29 14:40:04;;;;;;;0.20;0.20;;;;;;;;;;5010004;28;20587;-72
2022/12/29 14:42:29;;;;;;;0.75;0.75;;;;;;;;;;5030047;28;20108;-74
2022/12/29 14:44:58;;;;;;;0.20;0.20;;;;;;;;;;5022735;28;20121;-72
2022/12/29 14:47:24;;;;;;;1.70;1.65;;;;;;;;;;5029658;28;20029;-73
2022/12/29 14:49:51;;;;;;;0.25;0.20;;;;;;;;;;4997691;28;20033;-73
2022/12/29 14:52:21;;;;;;;0.65;0.65;;;;;;;;;;4992900;28;20065;-73
2022/12/29 14:55:13;;;;;;;0.75;0.63;;;;;;;;;;5026595;28;20018;-72
2022/12/29 14:57:42;;;;;;;0.20;0.20;;;;;;;;;;4994454;28;20366;-74
2022/12/29 15:00:08;;;;;;;;;;;;;;;;;;5029344;28;20068;-74
2022/12/29 15:02:38;;;;;;;0.45;0.40;;;;;;;;;;5026215;28;20576;-73
2022/12/29 15:05:04;;;;;;;0.20;0.20;;;;;;;;;;5009612;28;20030;-73
2022/12/29 15:07:31;;;;;;;0.15;0.15;;;;;;;;;;4997204;28;20171;-75
2022/12/29 15:09:59;;;;;;;0.20;0.20;;;;;;;;;;5027917;28;20070;-78
2022/12/29 15:12:40;;;;;;;2.33;0.93;;;;;;;;;;5011512;28;20037;-78
2022/12/29 15:15:17;;;;;;;0.20;0.20;;;;;;;;;;5028398;28;20029;-78
2022/12/29 15:17:42;;;;;;;1.70;0.88;;;;;;;;;;5028901;28;20080;-77
2022/12/29 15:20:21;;;;;;;0.20;0.20;;;;;;;;;;5029533;28;20079;-78
2022/12/29 15:22:55;;;;;;;0.20;0.20;;;;;;;;;;5006586;28;20025;-79
2022/12/29 15:25:20;;;;;;;0.20;0.20;;;;;;;;;;5031618;28;20473;-79
2022/12/29 15:27:53;;;;;;;0.40;0.40;;;;;;;;;;5024804;28;20027;-79
2022/12/29 15:30:19;;;;;;;0.20;0.20;;;;;;;;;;5010250;28;20034;-79
2022/12/29 15:32:46;;;;;;;0.20;0.20;;;;;;;;;;5027835;28;20703;-78